sensor_id;sensor_type;location;lat;lon;timestamp;temperature;humidity
61807;DHT22;47726;52.766;6.606;2023-05-06T00:02:12;11.90;99.90
61807;DHT22;47726;52.766;6.606;2023-05-06T00:04:37;11.90;99.90
61807;DHT22;47726;52.766;6.606;2023-05-06T00:07:03;11.80;99.90
61807;DHT22;47726;52.766;6.606;2023-05-06T00:09:29;11.80;99.90
61807;DHT22;47726;52.766;6.606;2023-05-06T00:11:55;11.70;99.90
61807;DHT22;47726;52.766;6.606;2023-05-06T00:14:21;11.70;99.90
61807;DHT22;47726;52.766;6.606;2023-05-06T00:16:47;11.70;99.90
61807;DHT22;47726;52.766;6.606;2023-05-06T00:19:12;11.60;99.90
61807;DHT22;47726;52.766;6.606;2023-05-06T00:21:38;11.60;99.90
61807;DHT22;47726;52.766;6.606;2023-05-06T00:24:04;11.60;99.90
61807;DHT22;47726;52.766;6.606;2023-05-06T00:26:30;11.60;99.90
61807;DHT22;47726;52.766;6.606;2023-05-06T00:28:55;11.60;99.90
61807;DHT22;47726;52.766;6.606;2023-05-06T00:31:21;11.60;99.90
61807;DHT22;47726;52.766;6.606;2023-05-06T00:33:46;11.60;99.90
61807;DHT22;47726;52.766;6.606;2023-05-06T00:36:12;11.60;99.90
61807;DHT22;47726;52.766;6.606;2023-05-06T00:38:38;11.50;99.90
61807;DHT22;47726;52.766;6.606;2023-05-06T00:41:03;11.50;99.90
61807;DHT22;47726;52.766;6.606;2023-05-06T00:43:29;11.50;99.90
61807;DHT22;47726;52.766;6.606;2023-05-06T00:45:55;11.40;99.90
61807;DHT22;47726;52.766;6.606;2023-05-06T00:48:20;11.50;99.90
61807;DHT22;47726;52.766;6.606;2023-05-06T00:50:46;11.40;99.90
61807;DHT22;47726;52.766;6.606;2023-05-06T00:53:12;11.40;99.90
61807;DHT22;47726;52.766;6.606;2023-05-06T00:55:37;11.40;99.90
61807;DHT22;47726;52.766;6.606;2023-05-06T00:58:04;11.30;99.90
61807;DHT22;47726;52.766;6.606;2023-05-06T01:00:30;11.30;99.90
61807;DHT22;47726;52.766;6.606;2023-05-06T01:02:56;11.30;99.90
61807;DHT22;47726;52.766;6.606;2023-05-06T01:05:25;11.30;99.90
61807;DHT22;47726;52.766;6.606;2023-05-06T01:08:10;11.30;99.90
61807;DHT22;47726;52.766;6.606;2023-05-06T01:10:51;11.30;99.90
61807;DHT22;47726;52.766;6.606;2023-05-06T01:13:28;11.30;99.90
61807;DHT22;47726;52.766;6.606;2023-05-06T01:15:56;11.30;99.90
61807;DHT22;47726;52.766;6.606;2023-05-06T01:18:25;11.30;99.90
61807;DHT22;47726;52.766;6.606;2023-05-06T01:20:53;11.40;99.90
61807;DHT22;47726;52.766;6.606;2023-05-06T01:23:20;11.40;99.90
61807;DHT22;47726;52.766;6.606;2023-05-06T01:25:46;11.30;99.90
61807;DHT22;47726;52.766;6.606;2023-05-06T01:28:12;11.40;99.90
61807;DHT22;47726;52.766;6.606;2023-05-06T01:33:10;11.40;99.90
61807;DHT22;47726;52.766;6.606;2023-05-06T01:38:41;11.40;99.90
61807;DHT22;47726;52.766;6.606;2023-05-06T01:41:16;11.50;99.90
61807;DHT22;47726;52.766;6.606;2023-05-06T01:43:43;11.40;99.90
61807;DHT22;47726;52.766;6.606;2023-05-06T01:46:17;11.40;99.90
61807;DHT22;47726;52.766;6.606;2023-05-06T01:48:45;11.40;99.90
61807;DHT22;47726;52.766;6.606;2023-05-06T01:51:11;11.40;99.90
61807;DHT22;47726;52.766;6.606;2023-05-06T01:53:36;11.40;99.90
61807;DHT22;47726;52.766;6.606;2023-05-06T01:56:03;11.30;99.90
61807;DHT22;47726;52.766;6.606;2023-05-06T01:58:29;11.30;99.90
61807;DHT22;47726;52.766;6.606;2023-05-06T02:00:54;11.20;99.90
61807;DHT22;47726;52.766;6.606;2023-05-06T02:03:20;11.20;99.90
61807;DHT22;47726;52.766;6.606;2023-05-06T02:05:45;11.20;99.90
61807;DHT22;47726;52.766;6.606;2023-05-06T02:08:11;11.20;99.90
61807;DHT22;47726;52.766;6.606;2023-05-06T02:10:37;11.10;99.90
61807;DHT22;47726;52.766;6.606;2023-05-06T02:13:03;11.10;99.90
61807;DHT22;47726;52.766;6.606;2023-05-06T02:15:28;11.10;99.90
61807;DHT22;47726;52.766;6.606;2023-05-06T02:17:54;11.10;99.90
61807;DHT22;47726;52.766;6.606;2023-05-06T02:20:21;11.10;99.90
61807;DHT22;47726;52.766;6.606;2023-05-06T02:22:47;11.00;99.90
61807;DHT22;47726;52.766;6.606;2023-05-06T02:25:12;11.00;99.90
61807;DHT22;47726;52.766;6.606;2023-05-06T02:27:38;11.00;99.90
61807;DHT22;47726;52.766;6.606;2023-05-06T02:30:04;11.00;99.90
61807;DHT22;47726;52.766;6.606;2023-05-06T02:32:30;11.00;99.90
61807;DHT22;47726;52.766;6.606;2023-05-06T02:34:56;11.00;99.90
61807;DHT22;47726;52.766;6.606;2023-05-06T02:37:22;11.00;99.90
61807;DHT22;47726;52.766;6.606;2023-05-06T02:39:47;11.00;99.90
61807;DHT22;47726;52.766;6.606;2023-05-06T02:42:13;10.90;99.90
61807;DHT22;47726;52.766;6.606;2023-05-06T02:44:40;10.90;99.90
61807;DHT22;47726;52.766;6.606;2023-05-06T02:47:06;10.90;99.90
61807;DHT22;47726;52.766;6.606;2023-05-06T02:49:31;10.90;99.90
61807;DHT22;47726;52.766;6.606;2023-05-06T02:51:57;10.90;99.90
61807;DHT22;47726;52.766;6.606;2023-05-06T02:54:22;10.90;99.90
61807;DHT22;47726;52.766;6.606;2023-05-06T02:56:48;10.90;99.90
61807;DHT22;47726;52.766;6.606;2023-05-06T02:59:14;10.90;99.90
61807;DHT22;47726;52.766;6.606;2023-05-06T03:01:39;10.90;99.90
61807;DHT22;47726;52.766;6.606;2023-05-06T03:04:05;10.90;99.90
61807;DHT22;47726;52.766;6.606;2023-05-06T03:06:31;10.90;99.90
61807;DHT22;47726;52.766;6.606;2023-05-06T03:08:57;10.90;99.90
61807;DHT22;47726;52.766;6.606;2023-05-06T03:11:22;10.80;99.90
61807;DHT22;47726;52.766;6.606;2023-05-06T03:13:48;10.80;99.90
61807;DHT22;47726;52.766;6.606;2023-05-06T03:16:13;10.80;99.90
61807;DHT22;47726;52.766;6.606;2023-05-06T03:18:39;10.80;99.90
61807;DHT22;47726;52.766;6.606;2023-05-06T03:21:05;10.70;99.90
61807;DHT22;47726;52.766;6.606;2023-05-06T03:23:31;10.70;99.90
61807;DHT22;47726;52.766;6.606;2023-05-06T03:25:56;10.70;99.90
61807;DHT22;47726;52.766;6.606;2023-05-06T03:28:22;10.70;99.90
61807;DHT22;47726;52.766;6.606;2023-05-06T03:30:48;10.70;99.90
61807;DHT22;47726;52.766;6.606;2023-05-06T03:33:13;10.70;99.90
61807;DHT22;47726;52.766;6.606;2023-05-06T03:35:39;10.70;99.90
61807;DHT22;47726;52.766;6.606;2023-05-06T03:38:05;10.60;99.90
61807;DHT22;47726;52.766;6.606;2023-05-06T03:40:32;10.60;99.90
61807;DHT22;47726;52.766;6.606;2023-05-06T03:42:57;10.60;99.90
61807;DHT22;47726;52.766;6.606;2023-05-06T03:45:23;10.60;99.90
61807;DHT22;47726;52.766;6.606;2023-05-06T03:47:49;10.60;99.90
61807;DHT22;47726;52.766;6.606;2023-05-06T03:50:14;10.60;99.90
61807;DHT22;47726;52.766;6.606;2023-05-06T03:52:40;10.60;99.90
61807;DHT22;47726;52.766;6.606;2023-05-06T03:55:06;10.60;99.90
61807;DHT22;47726;52.766;6.606;2023-05-06T03:57:31;10.60;99.90
61807;DHT22;47726;52.766;6.606;2023-05-06T03:59:57;10.60;99.90
61807;DHT22;47726;52.766;6.606;2023-05-06T04:02:22;10.60;99.90
61807;DHT22;47726;52.766;6.606;2023-05-06T04:04:48;10.60;99.90
61807;DHT22;47726;52.766;6.606;2023-05-06T04:07:14;10.60;99.90
61807;DHT22;47726;52.766;6.606;2023-05-06T04:09:39;10.50;99.90
61807;DHT22;47726;52.766;6.606;2023-05-06T04:12:05;10.50;99.90
61807;DHT22;47726;52.766;6.606;2023-05-06T04:14:31;10.50;99.90
61807;DHT22;47726;52.766;6.606;2023-05-06T04:16:57;10.50;99.90
61807;DHT22;47726;52.766;6.606;2023-05-06T04:19:22;10.50;99.90
61807;DHT22;47726;52.766;6.606;2023-05-06T04:21:48;10.50;99.90
61807;DHT22;47726;52.766;6.606;2023-05-06T04:24:13;10.50;99.90
61807;DHT22;47726;52.766;6.606;2023-05-06T04:26:42;10.50;99.90
61807;DHT22;47726;52.766;6.606;2023-05-06T04:29:08;10.50;99.90
61807;DHT22;47726;52.766;6.606;2023-05-06T04:31:34;10.50;99.90
61807;DHT22;47726;52.766;6.606;2023-05-06T04:34:01;10.50;99.90
61807;DHT22;47726;52.766;6.606;2023-05-06T04:36:27;10.50;99.90
61807;DHT22;47726;52.766;6.606;2023-05-06T04:38:52;10.50;99.90
61807;DHT22;47726;52.766;6.606;2023-05-06T04:41:18;10.50;99.90
61807;DHT22;47726;52.766;6.606;2023-05-06T04:43:45;10.50;99.90
61807;DHT22;47726;52.766;6.606;2023-05-06T04:46:11;10.50;99.90
61807;DHT22;47726;52.766;6.606;2023-05-06T04:48:37;10.60;99.90
61807;DHT22;47726;52.766;6.606;2023-05-06T04:51:03;10.60;99.90
61807;DHT22;47726;52.766;6.606;2023-05-06T04:53:30;10.70;99.90
61807;DHT22;47726;52.766;6.606;2023-05-06T04:55:55;10.70;99.90
61807;DHT22;47726;52.766;6.606;2023-05-06T04:58:21;10.70;99.90
61807;DHT22;47726;52.766;6.606;2023-05-06T05:00:47;10.70;99.90
61807;DHT22;47726;52.766;6.606;2023-05-06T05:03:12;10.70;99.90
61807;DHT22;47726;52.766;6.606;2023-05-06T05:05:38;10.70;99.90
61807;DHT22;47726;52.766;6.606;2023-05-06T05:08:04;10.80;99.90
61807;DHT22;47726;52.766;6.606;2023-05-06T05:10:29;10.80;99.90
61807;DHT22;47726;52.766;6.606;2023-05-06T05:12:55;10.80;99.90
61807;DHT22;47726;52.766;6.606;2023-05-06T05:15:21;10.70;99.90
61807;DHT22;47726;52.766;6.606;2023-05-06T05:17:46;10.70;99.90
61807;DHT22;47726;52.766;6.606;2023-05-06T05:20:12;10.80;99.90
61807;DHT22;47726;52.766;6.606;2023-05-06T05:22:37;10.80;99.90
61807;DHT22;47726;52.766;6.606;2023-05-06T05:25:03;10.80;99.90
61807;DHT22;47726;52.766;6.606;2023-05-06T05:27:29;10.80;99.90
61807;DHT22;47726;52.766;6.606;2023-05-06T05:29:55;10.80;99.90
61807;DHT22;47726;52.766;6.606;2023-05-06T05:32:21;10.80;99.90
61807;DHT22;47726;52.766;6.606;2023-05-06T05:34:46;10.80;99.90
61807;DHT22;47726;52.766;6.606;2023-05-06T05:37:12;10.80;99.90
61807;DHT22;47726;52.766;6.606;2023-05-06T05:39:37;10.90;99.90
61807;DHT22;47726;52.766;6.606;2023-05-06T05:42:03;10.90;99.90
61807;DHT22;47726;52.766;6.606;2023-05-06T05:44:29;11.00;99.90
61807;DHT22;47726;52.766;6.606;2023-05-06T05:46:54;11.00;99.90
61807;DHT22;47726;52.766;6.606;2023-05-06T05:49:20;11.00;99.90
61807;DHT22;47726;52.766;6.606;2023-05-06T05:51:46;11.10;99.90
61807;DHT22;47726;52.766;6.606;2023-05-06T05:54:14;11.20;99.90
61807;DHT22;47726;52.766;6.606;2023-05-06T05:56:40;11.30;99.90
61807;DHT22;47726;52.766;6.606;2023-05-06T05:59:06;11.40;99.90
61807;DHT22;47726;52.766;6.606;2023-05-06T06:01:35;11.50;99.90
61807;DHT22;47726;52.766;6.606;2023-05-06T06:04:00;11.70;99.90
61807;DHT22;47726;52.766;6.606;2023-05-06T06:06:26;11.70;99.90
61807;DHT22;47726;52.766;6.606;2023-05-06T06:08:51;11.90;99.90
61807;DHT22;47726;52.766;6.606;2023-05-06T06:11:17;12.00;99.90
61807;DHT22;47726;52.766;6.606;2023-05-06T06:13:43;12.30;99.90
61807;DHT22;47726;52.766;6.606;2023-05-06T06:16:09;12.50;99.90
61807;DHT22;47726;52.766;6.606;2023-05-06T06:18:35;12.70;99.90
61807;DHT22;47726;52.766;6.606;2023-05-06T06:21:00;13.00;99.90
61807;DHT22;47726;52.766;6.606;2023-05-06T06:23:26;13.20;99.90
61807;DHT22;47726;52.766;6.606;2023-05-06T06:25:52;13.40;99.90
61807;DHT22;47726;52.766;6.606;2023-05-06T06:28:17;13.60;99.90
61807;DHT22;47726;52.766;6.606;2023-05-06T06:30:43;13.90;99.90
61807;DHT22;47726;52.766;6.606;2023-05-06T06:33:14;14.00;99.90
61807;DHT22;47726;52.766;6.606;2023-05-06T06:35:40;14.20;99.90
61807;DHT22;47726;52.766;6.606;2023-05-06T06:38:05;14.20;99.90
61807;DHT22;47726;52.766;6.606;2023-05-06T06:40:31;14.20;99.90
61807;DHT22;47726;52.766;6.606;2023-05-06T06:42:56;14.10;99.90
61807;DHT22;47726;52.766;6.606;2023-05-06T06:45:22;14.10;99.90
61807;DHT22;47726;52.766;6.606;2023-05-06T06:47:48;14.10;99.90
61807;DHT22;47726;52.766;6.606;2023-05-06T06:50:13;14.00;99.90
61807;DHT22;47726;52.766;6.606;2023-05-06T06:52:39;13.90;99.90
61807;DHT22;47726;52.766;6.606;2023-05-06T06:55:05;13.90;99.90
61807;DHT22;47726;52.766;6.606;2023-05-06T06:57:31;13.90;99.90
61807;DHT22;47726;52.766;6.606;2023-05-06T06:59:57;13.80;99.90
61807;DHT22;47726;52.766;6.606;2023-05-06T07:02:22;13.80;99.90
61807;DHT22;47726;52.766;6.606;2023-05-06T07:04:48;13.90;99.90
61807;DHT22;47726;52.766;6.606;2023-05-06T07:07:14;13.90;99.90
61807;DHT22;47726;52.766;6.606;2023-05-06T07:09:39;14.00;99.90
61807;DHT22;47726;52.766;6.606;2023-05-06T07:12:06;14.00;99.90
61807;DHT22;47726;52.766;6.606;2023-05-06T07:14:32;14.30;99.90
61807;DHT22;47726;52.766;6.606;2023-05-06T07:16:58;14.60;99.90
61807;DHT22;47726;52.766;6.606;2023-05-06T07:19:25;14.80;99.90
61807;DHT22;47726;52.766;6.606;2023-05-06T07:21:51;15.00;99.90
61807;DHT22;47726;52.766;6.606;2023-05-06T07:24:16;15.10;99.90
61807;DHT22;47726;52.766;6.606;2023-05-06T07:26:42;15.20;99.90
61807;DHT22;47726;52.766;6.606;2023-05-06T07:29:08;15.30;99.90
61807;DHT22;47726;52.766;6.606;2023-05-06T07:31:34;15.40;99.90
61807;DHT22;47726;52.766;6.606;2023-05-06T07:33:59;15.70;99.90
61807;DHT22;47726;52.766;6.606;2023-05-06T07:36:25;16.00;99.90
61807;DHT22;47726;52.766;6.606;2023-05-06T07:38:52;16.30;99.90
61807;DHT22;47726;52.766;6.606;2023-05-06T07:41:17;16.40;99.90
61807;DHT22;47726;52.766;6.606;2023-05-06T07:43:43;16.40;99.90
61807;DHT22;47726;52.766;6.606;2023-05-06T07:46:09;16.30;99.90
61807;DHT22;47726;52.766;6.606;2023-05-06T07:48:35;16.30;99.90
61807;DHT22;47726;52.766;6.606;2023-05-06T07:51:01;16.30;99.90
61807;DHT22;47726;52.766;6.606;2023-05-06T07:53:27;16.30;99.90
61807;DHT22;47726;52.766;6.606;2023-05-06T07:55:53;16.30;99.90
61807;DHT22;47726;52.766;6.606;2023-05-06T07:58:21;16.40;99.90
61807;DHT22;47726;52.766;6.606;2023-05-06T08:00:47;16.50;99.90
61807;DHT22;47726;52.766;6.606;2023-05-06T08:03:12;16.70;99.90
61807;DHT22;47726;52.766;6.606;2023-05-06T08:05:38;16.90;99.90
61807;DHT22;47726;52.766;6.606;2023-05-06T08:08:04;17.10;99.90
61807;DHT22;47726;52.766;6.606;2023-05-06T08:10:29;17.40;99.90
61807;DHT22;47726;52.766;6.606;2023-05-06T08:12:55;17.60;99.90
61807;DHT22;47726;52.766;6.606;2023-05-06T08:15:20;17.80;99.90
61807;DHT22;47726;52.766;6.606;2023-05-06T08:17:46;18.00;99.90
61807;DHT22;47726;52.766;6.606;2023-05-06T08:20:12;18.00;99.90
61807;DHT22;47726;52.766;6.606;2023-05-06T08:22:38;18.00;99.90
61807;DHT22;47726;52.766;6.606;2023-05-06T08:25:04;18.10;99.90
61807;DHT22;47726;52.766;6.606;2023-05-06T08:27:29;18.20;99.90
61807;DHT22;47726;52.766;6.606;2023-05-06T08:29:55;18.30;99.90
61807;DHT22;47726;52.766;6.606;2023-05-06T08:32:21;18.50;99.90
61807;DHT22;47726;52.766;6.606;2023-05-06T08:34:47;18.70;99.90
61807;DHT22;47726;52.766;6.606;2023-05-06T08:37:12;18.80;99.90
61807;DHT22;47726;52.766;6.606;2023-05-06T08:39:38;19.00;99.90
61807;DHT22;47726;52.766;6.606;2023-05-06T08:42:04;19.20;99.90
61807;DHT22;47726;52.766;6.606;2023-05-06T08:44:30;19.40;99.90
61807;DHT22;47726;52.766;6.606;2023-05-06T08:46:58;19.60;99.90
61807;DHT22;47726;52.766;6.606;2023-05-06T08:49:24;19.80;99.90
61807;DHT22;47726;52.766;6.606;2023-05-06T08:51:50;20.00;99.90
61807;DHT22;47726;52.766;6.606;2023-05-06T08:54:17;20.10;99.90
61807;DHT22;47726;52.766;6.606;2023-05-06T08:56:47;20.30;99.90
61807;DHT22;47726;52.766;6.606;2023-05-06T08:59:13;20.40;99.90
61807;DHT22;47726;52.766;6.606;2023-05-06T09:01:39;20.50;99.90
61807;DHT22;47726;52.766;6.606;2023-05-06T09:04:05;20.60;99.90
61807;DHT22;47726;52.766;6.606;2023-05-06T09:06:34;20.70;99.90
61807;DHT22;47726;52.766;6.606;2023-05-06T09:09:00;20.80;99.90
61807;DHT22;47726;52.766;6.606;2023-05-06T09:11:29;20.90;99.90
61807;DHT22;47726;52.766;6.606;2023-05-06T09:16:35;21.10;99.90
61807;DHT22;47726;52.766;6.606;2023-05-06T09:19:01;21.20;99.90
61807;DHT22;47726;52.766;6.606;2023-05-06T09:21:34;21.20;99.90
61807;DHT22;47726;52.766;6.606;2023-05-06T09:24:01;21.20;99.90
61807;DHT22;47726;52.766;6.606;2023-05-06T09:26:29;21.20;99.90
61807;DHT22;47726;52.766;6.606;2023-05-06T09:28:56;21.20;99.90
61807;DHT22;47726;52.766;6.606;2023-05-06T09:31:23;21.20;99.90
61807;DHT22;47726;52.766;6.606;2023-05-06T09:33:50;21.10;99.90
61807;DHT22;47726;52.766;6.606;2023-05-06T09:36:16;21.10;99.90
61807;DHT22;47726;52.766;6.606;2023-05-06T09:38:41;21.00;99.90
61807;DHT22;47726;52.766;6.606;2023-05-06T09:41:07;20.90;99.90
61807;DHT22;47726;52.766;6.606;2023-05-06T09:43:34;20.80;99.90
61807;DHT22;47726;52.766;6.606;2023-05-06T09:46:02;20.70;99.90
61807;DHT22;47726;52.766;6.606;2023-05-06T09:48:30;20.60;99.90
61807;DHT22;47726;52.766;6.606;2023-05-06T09:50:56;20.60;99.90
61807;DHT22;47726;52.766;6.606;2023-05-06T09:53:23;20.70;99.90
61807;DHT22;47726;52.766;6.606;2023-05-06T09:55:49;20.80;99.90
61807;DHT22;47726;52.766;6.606;2023-05-06T09:58:16;20.80;99.90
61807;DHT22;47726;52.766;6.606;2023-05-06T10:00:45;20.70;99.90
61807;DHT22;47726;52.766;6.606;2023-05-06T10:03:13;20.60;99.90
61807;DHT22;47726;52.766;6.606;2023-05-06T10:05:39;20.50;99.90
61807;DHT22;47726;52.766;6.606;2023-05-06T10:08:07;20.40;99.90
61807;DHT22;47726;52.766;6.606;2023-05-06T10:10:33;20.30;99.90
61807;DHT22;47726;52.766;6.606;2023-05-06T10:13:03;20.10;99.90
61807;DHT22;47726;52.766;6.606;2023-05-06T10:15:29;20.00;99.90
61807;DHT22;47726;52.766;6.606;2023-05-06T10:17:57;20.00;99.90
61807;DHT22;47726;52.766;6.606;2023-05-06T10:20:25;20.00;99.90
61807;DHT22;47726;52.766;6.606;2023-05-06T10:25:38;20.10;99.90
61807;DHT22;47726;52.766;6.606;2023-05-06T10:28:06;20.00;99.90
61807;DHT22;47726;52.766;6.606;2023-05-06T10:30:36;20.00;99.90
61807;DHT22;47726;52.766;6.606;2023-05-06T10:33:09;20.10;99.90
61807;DHT22;47726;52.766;6.606;2023-05-06T10:35:51;20.20;99.90
61807;DHT22;47726;52.766;6.606;2023-05-06T10:38:31;20.40;99.90
61807;DHT22;47726;52.766;6.606;2023-05-06T10:40:58;20.60;99.90
61807;DHT22;47726;52.766;6.606;2023-05-06T10:43:29;20.80;99.90
61807;DHT22;47726;52.766;6.606;2023-05-06T10:46:11;20.90;99.90
61807;DHT22;47726;52.766;6.606;2023-05-06T10:49:13;21.00;99.90
61807;DHT22;47726;52.766;6.606;2023-05-06T10:51:26;21.00;99.90
61807;DHT22;47726;52.766;6.606;2023-05-06T10:54:09;20.90;99.90
61807;DHT22;47726;52.766;6.606;2023-05-06T10:56:37;20.90;99.90
61807;DHT22;47726;52.766;6.606;2023-05-06T10:59:09;20.70;99.90
61807;DHT22;47726;52.766;6.606;2023-05-06T11:01:42;20.70;99.90
61807;DHT22;47726;52.766;6.606;2023-05-06T11:04:13;20.50;99.90
61807;DHT22;47726;52.766;6.606;2023-05-06T11:06:47;20.40;99.90
61807;DHT22;47726;52.766;6.606;2023-05-06T11:09:21;20.40;99.90
61807;DHT22;47726;52.766;6.606;2023-05-06T11:12:00;20.30;99.90
61807;DHT22;47726;52.766;6.606;2023-05-06T11:14:36;20.30;99.90
61807;DHT22;47726;52.766;6.606;2023-05-06T11:17:06;20.30;99.90
61807;DHT22;47726;52.766;6.606;2023-05-06T11:19:36;20.20;99.90
61807;DHT22;47726;52.766;6.606;2023-05-06T11:22:04;20.20;99.90
61807;DHT22;47726;52.766;6.606;2023-05-06T11:24:41;20.30;99.90
61807;DHT22;47726;52.766;6.606;2023-05-06T11:27:08;20.40;99.90
61807;DHT22;47726;52.766;6.606;2023-05-06T11:29:35;20.60;99.90
61807;DHT22;47726;52.766;6.606;2023-05-06T11:32:02;20.70;99.90
61807;DHT22;47726;52.766;6.606;2023-05-06T11:34:29;20.80;99.90
61807;DHT22;47726;52.766;6.606;2023-05-06T11:37:03;20.70;99.90
61807;DHT22;47726;52.766;6.606;2023-05-06T11:39:31;20.70;99.90
61807;DHT22;47726;52.766;6.606;2023-05-06T11:41:58;20.70;99.90
61807;DHT22;47726;52.766;6.606;2023-05-06T11:44:26;20.60;99.90
61807;DHT22;47726;52.766;6.606;2023-05-06T11:46:55;20.50;99.90
61807;DHT22;47726;52.766;6.606;2023-05-06T11:49:20;20.50;99.90
61807;DHT22;47726;52.766;6.606;2023-05-06T11:51:47;20.50;99.90
61807;DHT22;47726;52.766;6.606;2023-05-06T11:54:14;20.50;99.90
61807;DHT22;47726;52.766;6.606;2023-05-06T11:56:46;20.60;99.90
61807;DHT22;47726;52.766;6.606;2023-05-06T11:59:12;20.60;99.90
61807;DHT22;47726;52.766;6.606;2023-05-06T12:01:40;20.70;99.90
61807;DHT22;47726;52.766;6.606;2023-05-06T12:04:05;20.70;99.90
61807;DHT22;47726;52.766;6.606;2023-05-06T12:06:33;20.70;99.90
61807;DHT22;47726;52.766;6.606;2023-05-06T12:08:59;20.70;99.90
61807;DHT22;47726;52.766;6.606;2023-05-06T12:11:25;20.70;99.90
61807;DHT22;47726;52.766;6.606;2023-05-06T12:13:51;20.70;99.90
61807;DHT22;47726;52.766;6.606;2023-05-06T12:16:17;20.70;99.90
61807;DHT22;47726;52.766;6.606;2023-05-06T12:18:43;20.70;99.90
61807;DHT22;47726;52.766;6.606;2023-05-06T12:21:09;20.70;99.90
61807;DHT22;47726;52.766;6.606;2023-05-06T12:23:34;20.80;99.90
61807;DHT22;47726;52.766;6.606;2023-05-06T12:26:04;20.70;99.90
61807;DHT22;47726;52.766;6.606;2023-05-06T12:28:31;20.70;99.90
61807;DHT22;47726;52.766;6.606;2023-05-06T12:30:57;20.70;99.90
61807;DHT22;47726;52.766;6.606;2023-05-06T12:33:23;20.60;99.90
61807;DHT22;47726;52.766;6.606;2023-05-06T12:35:48;20.60;99.90
61807;DHT22;47726;52.766;6.606;2023-05-06T12:38:16;20.60;99.90
61807;DHT22;47726;52.766;6.606;2023-05-06T12:40:43;20.60;99.90
61807;DHT22;47726;52.766;6.606;2023-05-06T12:43:10;20.60;99.90
61807;DHT22;47726;52.766;6.606;2023-05-06T12:45:37;20.70;99.90
61807;DHT22;47726;52.766;6.606;2023-05-06T12:48:05;20.70;99.90
61807;DHT22;47726;52.766;6.606;2023-05-06T12:50:41;20.80;99.90
61807;DHT22;47726;52.766;6.606;2023-05-06T12:53:09;20.80;99.90
61807;DHT22;47726;52.766;6.606;2023-05-06T12:55:36;20.70;99.90
61807;DHT22;47726;52.766;6.606;2023-05-06T12:58:02;20.70;99.90
61807;DHT22;47726;52.766;6.606;2023-05-06T13:00:28;20.70;99.90
61807;DHT22;47726;52.766;6.606;2023-05-06T13:02:54;20.60;99.90
61807;DHT22;47726;52.766;6.606;2023-05-06T13:05:20;20.60;99.90
61807;DHT22;47726;52.766;6.606;2023-05-06T13:07:46;20.50;99.90
61807;DHT22;47726;52.766;6.606;2023-05-06T13:10:12;20.50;99.90
61807;DHT22;47726;52.766;6.606;2023-05-06T13:12:38;20.50;99.90
61807;DHT22;47726;52.766;6.606;2023-05-06T13:15:04;20.50;99.90
61807;DHT22;47726;52.766;6.606;2023-05-06T13:17:29;20.60;99.90
61807;DHT22;47726;52.766;6.606;2023-05-06T13:19:56;20.70;99.90
61807;DHT22;47726;52.766;6.606;2023-05-06T13:22:22;20.80;99.90
61807;DHT22;47726;52.766;6.606;2023-05-06T13:24:48;20.80;99.90
61807;DHT22;47726;52.766;6.606;2023-05-06T13:27:14;21.00;99.90
61807;DHT22;47726;52.766;6.606;2023-05-06T13:29:40;21.00;99.90
61807;DHT22;47726;52.766;6.606;2023-05-06T13:32:05;21.10;99.90
61807;DHT22;47726;52.766;6.606;2023-05-06T13:34:31;21.20;99.90
61807;DHT22;47726;52.766;6.606;2023-05-06T13:36:57;21.20;99.90
61807;DHT22;47726;52.766;6.606;2023-05-06T13:39:23;21.20;99.90
61807;DHT22;47726;52.766;6.606;2023-05-06T13:41:49;21.20;99.90
61807;DHT22;47726;52.766;6.606;2023-05-06T13:44:16;21.20;99.90
61807;DHT22;47726;52.766;6.606;2023-05-06T13:46:41;21.20;99.90
61807;DHT22;47726;52.766;6.606;2023-05-06T13:49:07;21.10;99.90
61807;DHT22;47726;52.766;6.606;2023-05-06T13:51:33;21.10;99.90
61807;DHT22;47726;52.766;6.606;2023-05-06T13:53:59;21.20;99.90
61807;DHT22;47726;52.766;6.606;2023-05-06T13:56:25;21.20;99.90
61807;DHT22;47726;52.766;6.606;2023-05-06T13:58:51;21.20;99.90
61807;DHT22;47726;52.766;6.606;2023-05-06T14:01:21;21.20;99.90
61807;DHT22;47726;52.766;6.606;2023-05-06T14:03:47;21.20;99.90
61807;DHT22;47726;52.766;6.606;2023-05-06T14:06:13;21.30;99.90
61807;DHT22;47726;52.766;6.606;2023-05-06T14:08:38;21.30;99.90
61807;DHT22;47726;52.766;6.606;2023-05-06T14:11:04;21.30;99.90
61807;DHT22;47726;52.766;6.606;2023-05-06T14:13:31;21.40;99.90
61807;DHT22;47726;52.766;6.606;2023-05-06T14:15:57;21.40;99.90
61807;DHT22;47726;52.766;6.606;2023-05-06T14:18:24;21.30;99.90
61807;DHT22;47726;52.766;6.606;2023-05-06T14:20:50;21.30;99.90
61807;DHT22;47726;52.766;6.606;2023-05-06T14:23:15;21.30;99.90
61807;DHT22;47726;52.766;6.606;2023-05-06T14:25:41;21.30;99.90
61807;DHT22;47726;52.766;6.606;2023-05-06T14:28:06;21.30;99.90
61807;DHT22;47726;52.766;6.606;2023-05-06T14:30:33;21.30;99.90
61807;DHT22;47726;52.766;6.606;2023-05-06T14:33:00;21.20;99.90
61807;DHT22;47726;52.766;6.606;2023-05-06T14:35:25;21.10;99.90
61807;DHT22;47726;52.766;6.606;2023-05-06T14:37:51;21.20;99.90
61807;DHT22;47726;52.766;6.606;2023-05-06T14:40:17;21.10;99.90
61807;DHT22;47726;52.766;6.606;2023-05-06T14:42:43;21.10;99.90
61807;DHT22;47726;52.766;6.606;2023-05-06T14:45:10;21.10;99.90
61807;DHT22;47726;52.766;6.606;2023-05-06T14:47:35;21.00;99.90
61807;DHT22;47726;52.766;6.606;2023-05-06T14:50:01;20.90;99.90
61807;DHT22;47726;52.766;6.606;2023-05-06T14:52:27;20.90;99.90
61807;DHT22;47726;52.766;6.606;2023-05-06T14:54:52;20.90;99.90
61807;DHT22;47726;52.766;6.606;2023-05-06T14:57:18;20.80;99.90
61807;DHT22;47726;52.766;6.606;2023-05-06T14:59:44;20.80;99.90
61807;DHT22;47726;52.766;6.606;2023-05-06T15:02:10;20.70;99.90
61807;DHT22;47726;52.766;6.606;2023-05-06T15:04:36;20.70;99.90
61807;DHT22;47726;52.766;6.606;2023-05-06T15:07:01;20.60;99.90
61807;DHT22;47726;52.766;6.606;2023-05-06T15:09:27;20.50;99.90
61807;DHT22;47726;52.766;6.606;2023-05-06T15:11:53;20.40;99.90
61807;DHT22;47726;52.766;6.606;2023-05-06T15:14:18;20.40;99.90
61807;DHT22;47726;52.766;6.606;2023-05-06T15:16:44;20.40;99.90
61807;DHT22;47726;52.766;6.606;2023-05-06T15:19:10;20.40;99.90
61807;DHT22;47726;52.766;6.606;2023-05-06T15:21:36;20.30;99.90
61807;DHT22;47726;52.766;6.606;2023-05-06T15:24:01;20.30;99.90
61807;DHT22;47726;52.766;6.606;2023-05-06T15:26:27;20.30;99.90
61807;DHT22;47726;52.766;6.606;2023-05-06T15:28:52;20.30;99.90
61807;DHT22;47726;52.766;6.606;2023-05-06T15:31:18;20.30;99.90
61807;DHT22;47726;52.766;6.606;2023-05-06T15:33:44;20.30;99.90
61807;DHT22;47726;52.766;6.606;2023-05-06T15:36:10;20.40;99.90
61807;DHT22;47726;52.766;6.606;2023-05-06T15:41:16;20.40;99.90